createdAt,value
2022-10-17T00:00:40.433Z,3.95
2022-10-17T00:03:07.216Z,3.88
2022-10-17T00:05:34.160Z,3.85
2022-10-17T00:08:00.630Z,4.00
2022-10-17T00:10:27.095Z,4.40
2022-10-17T00:12:53.519Z,3.58
2022-10-17T00:15:21.642Z,3.67
2022-10-17T00:17:48.441Z,3.63
2022-10-17T00:20:15.818Z,3.35
2022-10-17T00:22:42.828Z,3.08
2022-10-17T00:25:09.579Z,3.65
2022-10-17T00:27:38.601Z,2.95
2022-10-17T00:30:09.784Z,3.22
2022-10-17T00:32:36.318Z,3.55
2022-10-17T00:35:03.227Z,3.60
2022-10-17T00:37:33.957Z,3.35
2022-10-17T00:40:00.480Z,3.70
2022-10-17T00:42:28.250Z,4.70
2022-10-17T00:45:25.671Z,4.32
2022-10-17T00:48:08.394Z,3.97
2022-10-17T00:50:38.486Z,3.53
2022-10-17T00:53:08.210Z,3.47
2022-10-17T00:55:48.351Z,4.22
2022-10-17T00:58:15.638Z,3.47
2022-10-17T01:00:43.567Z,3.55
2022-10-17T01:03:10.182Z,3.78
2022-10-17T01:05:38.059Z,3.40
2022-10-17T01:08:04.763Z,3.50
2022-10-17T01:10:47.217Z,3.70
2022-10-17T01:13:38.713Z,3.33
2022-10-17T01:16:18.779Z,3.63
2022-10-17T01:19:03.142Z,3.63
2022-10-17T01:21:51.712Z,3.05
2022-10-17T01:24:47.051Z,3.80
2022-10-17T01:27:43.351Z,3.78
2022-10-17T01:30:36.574Z,3.03
2022-10-17T01:34:03.407Z,3.28
2022-10-17T01:36:32.593Z,3.92
2022-10-17T01:39:16.834Z,3.47
2022-10-17T01:41:58.228Z,3.50
2022-10-17T01:44:47.552Z,3.45
2022-10-17T01:47:21.346Z,3.33
2022-10-17T01:49:53.410Z,3.80
2022-10-17T01:52:27.787Z,3.72
2022-10-17T01:55:03.300Z,3.53
2022-10-17T01:57:38.811Z,3.50
2022-10-17T02:00:14.011Z,3.85
2022-10-17T02:02:44.907Z,4.00
2022-10-17T02:05:12.162Z,3.33
2022-10-17T02:07:41.866Z,3.33
2022-10-17T02:10:45.927Z,3.45
2022-10-17T02:13:56.850Z,3.55
2022-10-17T02:16:51.676Z,3.47
2022-10-17T02:19:43.803Z,3.35
2022-10-17T02:22:37.715Z,3.20
2022-10-17T02:25:35.557Z,3.88
2022-10-17T02:28:18.583Z,3.45
2022-10-17T02:31:17.610Z,3.03
2022-10-17T02:33:49.930Z,3.47
2022-10-17T02:36:22.587Z,4.05
2022-10-17T02:38:52.472Z,3.50
2022-10-17T02:41:21.699Z,4.65
2022-10-17T02:43:50.950Z,3.15
2022-10-17T02:46:23.020Z,4.50
2022-10-17T02:49:02.137Z,3.55
2022-10-17T02:51:37.592Z,3.40
2022-10-17T02:54:17.686Z,3.63
2022-10-17T02:56:56.413Z,3.38
2022-10-17T02:59:27.253Z,3.83
2022-10-17T03:01:54.514Z,4.00
2022-10-17T03:04:21.043Z,3.08
2022-10-17T03:06:49.438Z,3.35
2022-10-17T03:09:16.137Z,3.47
2022-10-17T03:11:42.937Z,3.60
2022-10-17T03:14:09.405Z,3.10
2022-10-17T03:16:35.876Z,3.45
2022-10-17T03:19:02.362Z,3.25
2022-10-17T03:21:29.005Z,3.80
2022-10-17T03:23:55.706Z,3.75
2022-10-17T03:26:22.169Z,3.50
2022-10-17T03:28:51.928Z,3.08
2022-10-17T03:31:21.574Z,3.55
2022-10-17T03:33:48.417Z,2.80
2022-10-17T03:36:17.873Z,2.97
2022-10-17T03:38:47.003Z,3.60
2022-10-17T03:41:13.738Z,3.20
2022-10-17T03:43:40.502Z,3.60
2022-10-17T03:46:07.680Z,2.97
2022-10-17T03:48:34.378Z,3.85
2022-10-17T03:51:08.237Z,3.67
2022-10-17T03:53:35.155Z,4.18
2022-10-17T03:56:18.256Z,3.30
2022-10-17T03:58:45.832Z,3.78
2022-10-17T04:01:15.852Z,3.63
2022-10-17T04:03:43.515Z,3.50
2022-10-17T04:06:12.926Z,3.15
2022-10-17T04:08:42.450Z,3.08
2022-10-17T04:11:13.378Z,3.67
2022-10-17T04:13:40.724Z,5.88
2022-10-17T04:16:12.660Z,3.80
2022-10-17T04:18:39.234Z,8.05
2022-10-17T04:21:07.789Z,4.45
2022-10-17T04:23:35.308Z,3.90
2022-10-17T04:26:04.351Z,3.45
2022-10-17T04:28:32.403Z,3.63
2022-10-17T04:31:12.789Z,4.07
2022-10-17T04:33:40.042Z,4.43
2022-10-17T04:36:11.914Z,3.35
2022-10-17T04:38:39.057Z,3.50
2022-10-17T04:41:10.047Z,3.97
2022-10-17T04:43:39.571Z,3.50
2022-10-17T04:46:10.363Z,3.85
2022-10-17T04:48:38.345Z,3.60
2022-10-17T04:51:10.787Z,3.97
2022-10-17T04:53:39.738Z,3.88
2022-10-17T04:56:17.085Z,3.67
2022-10-17T04:58:44.740Z,3.92
2022-10-17T05:01:21.338Z,4.13
2022-10-17T05:06:21.946Z,5.47
2022-10-17T05:08:48.941Z,4.38
2022-10-17T05:11:26.206Z,3.35
2022-10-17T05:13:58.939Z,3.67
2022-10-17T05:16:27.303Z,17.73
2022-10-17T05:18:57.082Z,10.07
2022-10-17T05:21:25.981Z,5.63
2022-10-17T05:23:53.385Z,10.98
2022-10-17T05:26:20.707Z,14.18
2022-10-17T05:28:47.594Z,7.15
2022-10-17T05:31:14.870Z,4.78
2022-10-17T05:33:41.410Z,4.32
2022-10-17T05:36:09.062Z,3.83
2022-10-17T05:38:36.146Z,4.38
2022-10-17T05:41:05.981Z,4.68
2022-10-17T05:43:34.979Z,4.60
2022-10-17T05:46:06.618Z,5.35
2022-10-17T05:48:34.074Z,9.23
2022-10-17T05:51:05.435Z,6.25
2022-10-17T05:53:34.801Z,5.50
2022-10-17T05:56:04.944Z,4.45
2022-10-17T05:58:49.222Z,11.85
2022-10-17T06:01:17.463Z,7.50
2022-10-17T06:03:43.930Z,5.43
2022-10-17T06:06:13.899Z,4.50
2022-10-17T06:08:40.805Z,5.10
2022-10-17T06:11:10.129Z,7.97
2022-10-17T06:13:38.192Z,7.47
2022-10-17T06:16:05.358Z,6.68
2022-10-17T06:18:32.367Z,6.60
2022-10-17T06:21:08.601Z,25.85
2022-10-17T06:23:35.383Z,8.32
2022-10-17T06:26:04.845Z,6.10
2022-10-17T06:28:33.002Z,5.10
2022-10-17T06:30:59.613Z,5.60
2022-10-17T06:33:26.086Z,5.47
2022-10-17T06:35:55.252Z,5.18
2022-10-17T06:38:23.231Z,5.70
2022-10-17T06:40:49.886Z,5.90
2022-10-17T06:43:16.435Z,5.45
2022-10-17T06:45:42.931Z,5.97
2022-10-17T06:48:09.495Z,6.10
2022-10-17T06:50:35.937Z,5.53
2022-10-17T06:53:02.423Z,5.72
2022-10-17T06:55:29.111Z,5.47
2022-10-17T06:57:56.413Z,5.07
2022-10-17T07:00:23.875Z,5.25
2022-10-17T07:02:50.380Z,4.50
2022-10-17T07:05:17.219Z,23.60
2022-10-17T07:07:44.867Z,21.73
2022-10-17T07:10:12.995Z,22.38
2022-10-17T07:12:39.500Z,45.45
2022-10-17T07:15:06.531Z,31.25
2022-10-17T07:17:33.073Z,15.25
2022-10-17T07:19:59.601Z,14.55
2022-10-17T07:22:26.049Z,11.95
2022-10-17T07:24:52.558Z,9.30
2022-10-17T07:27:19.050Z,84.22
2022-10-17T07:29:45.607Z,28.55
2022-10-17T07:32:12.094Z,9.48
2022-10-17T07:34:38.550Z,12.75
2022-10-17T07:37:06.891Z,7.60
2022-10-17T07:39:35.517Z,5.63
2022-10-17T07:42:02.094Z,9.20
2022-10-17T07:44:28.591Z,7.47
2022-10-17T07:46:55.027Z,7.50
2022-10-17T07:49:21.518Z,6.68
2022-10-17T07:51:48.666Z,5.35
2022-10-17T07:54:15.276Z,4.70
2022-10-17T07:56:41.812Z,4.88
2022-10-17T07:59:09.469Z,4.97
2022-10-17T08:01:37.003Z,5.00
2022-10-17T08:04:03.525Z,4.50
2022-10-17T08:06:29.963Z,4.60
2022-10-17T08:08:57.809Z,4.95
2022-10-17T08:11:25.261Z,13.35
2022-10-17T08:13:51.807Z,6.25
2022-10-17T08:16:18.507Z,4.63
2022-10-17T08:18:45.023Z,8.75
2022-10-17T08:21:13.241Z,4.78
2022-10-17T08:23:40.087Z,4.85
2022-10-17T08:26:10.373Z,4.43
2022-10-17T08:28:40.402Z,4.88
2022-10-17T08:31:11.281Z,4.90
2022-10-17T08:33:38.214Z,4.70
2022-10-17T08:36:06.639Z,5.22
2022-10-17T08:38:36.877Z,4.32
2022-10-17T08:41:14.182Z,4.28
2022-10-17T08:43:59.276Z,4.40
2022-10-17T08:46:34.178Z,4.68
2022-10-17T08:49:05.686Z,4.15
2022-10-17T08:51:41.691Z,4.07
2022-10-17T08:54:25.915Z,4.05
2022-10-17T08:56:55.434Z,4.25
2022-10-17T08:59:30.293Z,3.83
2022-10-17T09:02:24.687Z,4.00
2022-10-17T09:05:09.475Z,3.72
2022-10-17T09:07:47.445Z,3.75
2022-10-17T09:10:32.049Z,3.50
2022-10-17T09:13:20.164Z,4.57
2022-10-17T09:16:10.212Z,4.40
2022-10-17T09:18:47.595Z,3.70
2022-10-17T09:22:01.008Z,3.92
2022-10-17T09:24:38.895Z,4.32
2022-10-17T09:27:17.644Z,3.53
2022-10-17T09:29:50.331Z,3.58
2022-10-17T09:32:23.644Z,3.55
2022-10-17T09:34:51.971Z,3.58
2022-10-17T09:37:21.082Z,3.63
2022-10-17T09:39:48.021Z,3.75
2022-10-17T09:42:26.774Z,3.95
2022-10-17T09:45:25.836Z,4.03
2022-10-17T09:48:23.010Z,3.67
2022-10-17T09:50:57.848Z,3.67
2022-10-17T09:53:43.050Z,4.93
2022-10-17T09:56:16.626Z,4.82
2022-10-17T09:58:54.470Z,4.32
2022-10-17T10:01:31.117Z,4.38
2022-10-17T10:04:16.529Z,3.72
2022-10-17T10:07:12.074Z,3.35
2022-10-17T10:09:40.203Z,3.58
2022-10-17T10:12:24.968Z,3.75
2022-10-17T10:14:54.775Z,3.67
2022-10-17T10:17:43.921Z,3.20
2022-10-17T10:20:46.630Z,3.22
2022-10-17T10:23:18.177Z,3.55
2022-10-17T10:26:05.826Z,3.72
2022-10-17T10:28:36.070Z,3.60
2022-10-17T10:31:07.915Z,3.40
2022-10-17T10:33:41.792Z,3.38
2022-10-17T10:36:09.123Z,3.45
2022-10-17T10:38:40.826Z,3.88
2022-10-17T10:41:11.189Z,4.63
2022-10-17T10:43:45.105Z,3.50
2022-10-17T10:46:27.510Z,5.65
2022-10-17T10:48:55.390Z,5.07
2022-10-17T10:51:41.244Z,5.25
2022-10-17T10:54:28.096Z,3.58
2022-10-17T10:59:51.077Z,3.80
2022-10-17T11:02:42.808Z,3.72
2022-10-17T11:05:34.199Z,3.70
2022-10-17T11:08:16.323Z,3.55
2022-10-17T11:11:02.436Z,3.35
2022-10-17T11:13:40.801Z,4.45
2022-10-17T11:16:33.039Z,3.80
2022-10-17T11:19:37.184Z,3.35
2022-10-17T11:22:29.243Z,4.63
2022-10-17T11:25:28.186Z,12.55
2022-10-17T11:27:54.809Z,5.22
2022-10-17T11:30:26.880Z,5.78
2022-10-17T11:33:00.846Z,5.75
2022-10-17T11:35:39.006Z,6.18
2022-10-17T11:38:30.204Z,4.60
2022-10-17T11:41:00.098Z,3.67
2022-10-17T11:43:42.503Z,3.50
2022-10-17T11:46:23.649Z,3.92
2022-10-17T11:49:07.789Z,4.55
2022-10-17T11:52:03.653Z,4.60
2022-10-17T11:54:39.230Z,4.20
2022-10-17T11:57:55.383Z,4.43
2022-10-17T12:00:48.980Z,4.57
2022-10-17T12:04:00.938Z,4.70
2022-10-17T12:07:12.902Z,4.72
2022-10-17T12:10:07.788Z,4.55
2022-10-17T12:12:35.636Z,3.58
2022-10-17T12:15:20.632Z,4.38
2022-10-17T12:17:55.613Z,6.07
2022-10-17T12:20:24.607Z,5.32
2022-10-17T12:23:23.074Z,4.15
2022-10-17T12:26:01.137Z,4.65
2022-10-17T12:28:40.825Z,4.30
2022-10-17T12:31:32.698Z,4.45
2022-10-17T12:34:05.413Z,3.25
2022-10-17T12:36:31.827Z,3.40
2022-10-17T12:39:01.239Z,4.10
2022-10-17T12:41:40.108Z,5.30
2022-10-17T12:44:28.218Z,4.53
2022-10-17T12:47:10.316Z,6.78
2022-10-17T12:49:51.969Z,5.72
2022-10-17T12:52:34.923Z,3.92
2022-10-17T12:55:12.161Z,4.32
2022-10-17T12:57:51.334Z,6.43
2022-10-17T13:00:29.568Z,4.32
2022-10-17T13:03:23.048Z,3.67
2022-10-17T13:05:54.204Z,3.80
2022-10-17T13:08:36.399Z,3.60
2022-10-17T13:11:03.844Z,3.90
2022-10-17T13:13:39.098Z,3.72
2022-10-17T13:16:05.815Z,3.88
2022-10-17T13:18:32.404Z,3.80
2022-10-17T13:21:02.547Z,3.50
2022-10-17T13:23:37.415Z,3.15
2022-10-17T13:26:14.569Z,5.32
2022-10-17T13:28:42.707Z,3.63
2022-10-17T13:31:33.332Z,5.80
2022-10-17T13:34:03.558Z,8.77
2022-10-17T13:36:32.663Z,6.28
2022-10-17T13:39:09.384Z,4.00
2022-10-17T13:41:39.299Z,3.55
2022-10-17T13:44:24.202Z,3.60
2022-10-17T13:46:53.396Z,3.42
2022-10-17T13:49:40.587Z,3.22
2022-10-17T13:52:19.214Z,3.53
2022-10-17T13:54:51.065Z,4.22
2022-10-17T13:57:23.140Z,5.15
2022-10-17T13:59:54.967Z,3.63
2022-10-17T14:02:31.145Z,4.68
2022-10-17T14:08:21.851Z,4.78
2022-10-17T14:10:47.121Z,6.47
2022-10-17T14:13:33.966Z,4.57
2022-10-17T14:16:04.178Z,7.57
2022-10-17T14:18:36.971Z,5.72
2022-10-17T14:24:13.362Z,12.10
2022-10-17T14:26:59.313Z,7.78
2022-10-17T14:29:49.763Z,9.53
2022-10-17T14:32:18.570Z,6.35
2022-10-17T14:34:46.748Z,7.28
2022-10-17T14:37:19.868Z,4.72
2022-10-17T14:39:51.109Z,9.60
2022-10-17T14:42:20.794Z,4.90
2022-10-17T14:44:53.392Z,10.63
2022-10-17T14:47:42.675Z,7.22
2022-10-17T14:50:10.225Z,5.97
2022-10-17T14:52:38.757Z,4.55
2022-10-17T14:55:24.896Z,8.48
2022-10-17T14:57:51.490Z,5.47
2022-10-17T15:00:21.352Z,6.28
2022-10-17T15:02:50.097Z,5.43
2022-10-17T15:05:17.632Z,3.78
2022-10-17T15:07:44.166Z,4.07
2022-10-17T15:10:30.713Z,4.55
2022-10-17T15:12:59.202Z,4.90
2022-10-17T15:15:38.748Z,6.35
2022-10-17T15:18:06.342Z,4.90
2022-10-17T15:20:34.249Z,6.47
2022-10-17T15:23:02.428Z,4.72
2022-10-17T15:25:31.220Z,4.60
2022-10-17T15:27:58.867Z,4.20
2022-10-17T15:30:36.676Z,3.92
2022-10-17T15:33:03.673Z,5.20
2022-10-17T15:35:31.171Z,4.43
2022-10-17T15:37:57.668Z,4.80
2022-10-17T15:40:29.078Z,4.10
2022-10-17T15:42:56.602Z,12.90
2022-10-17T15:45:23.782Z,7.10
2022-10-17T15:47:59.199Z,10.57
2022-10-17T15:50:25.722Z,9.07
2022-10-17T15:52:52.338Z,5.30
2022-10-17T15:55:19.907Z,5.65
2022-10-17T15:57:48.704Z,5.60
2022-10-17T16:00:22.791Z,4.07
2022-10-17T16:02:50.673Z,11.23
2022-10-17T16:05:23.658Z,14.45
2022-10-17T16:07:50.265Z,8.18
2022-10-17T16:10:17.615Z,8.35
2022-10-17T16:12:45.125Z,4.07
2022-10-17T16:15:23.318Z,3.95
2022-10-17T16:17:51.463Z,20.67
2022-10-17T16:20:19.566Z,11.60
2022-10-17T16:22:47.511Z,5.65
2022-10-17T16:25:25.574Z,8.73
2022-10-17T16:27:54.983Z,6.53
2022-10-17T16:32:56.754Z,4.07
2022-10-17T16:35:33.293Z,4.60
2022-10-17T16:38:04.135Z,3.83
2022-10-17T16:40:30.571Z,4.32
2022-10-17T16:42:57.061Z,5.70
2022-10-17T16:45:23.520Z,5.10
2022-10-17T16:47:50.562Z,5.57
2022-10-17T16:50:17.295Z,5.03
2022-10-17T16:52:43.743Z,5.07
2022-10-17T16:55:10.759Z,4.63
2022-10-17T16:57:37.314Z,6.57
2022-10-17T17:00:07.901Z,5.68
2022-10-17T17:02:34.649Z,5.93
2022-10-17T17:05:01.332Z,5.88
2022-10-17T17:07:29.679Z,5.47
2022-10-17T17:09:56.526Z,5.35
2022-10-17T17:12:23.543Z,6.80
2022-10-17T17:14:50.011Z,6.10
2022-10-17T17:17:24.680Z,7.70
2022-10-17T17:20:03.916Z,5.85
2022-10-17T17:22:30.382Z,5.43
2022-10-17T17:24:56.837Z,5.38
2022-10-17T17:27:24.992Z,5.35
2022-10-17T17:29:51.450Z,4.28
2022-10-17T17:32:17.931Z,4.72
2022-10-17T17:34:44.425Z,5.05
2022-10-17T17:37:10.867Z,5.13
2022-10-17T17:39:37.409Z,5.22
2022-10-17T17:42:04.314Z,5.05
2022-10-17T17:44:31.709Z,5.88
2022-10-17T17:46:58.127Z,6.93
2022-10-17T17:49:24.612Z,5.88
2022-10-17T17:51:51.155Z,5.05
2022-10-17T17:54:17.614Z,6.80
2022-10-17T17:56:44.073Z,5.53
2022-10-17T17:59:12.919Z,9.20
2022-10-17T18:01:39.606Z,6.85
2022-10-17T18:04:08.676Z,6.63
2022-10-17T18:06:37.744Z,6.95
2022-10-17T18:09:06.411Z,6.70
2022-10-17T18:11:33.167Z,8.00
2022-10-17T18:14:07.822Z,6.07
2022-10-17T18:16:36.717Z,5.90
2022-10-17T18:19:07.127Z,5.57
2022-10-17T18:21:35.141Z,24.95
2022-10-17T18:24:02.359Z,28.42
2022-10-17T18:26:28.826Z,14.30
2022-10-17T18:28:55.315Z,8.20
2022-10-17T18:31:28.148Z,6.72
2022-10-17T18:33:58.001Z,5.97
2022-10-17T18:36:26.106Z,8.93
2022-10-17T18:38:53.975Z,12.00
2022-10-17T18:41:23.703Z,9.40
2022-10-17T18:43:52.214Z,6.70
2022-10-17T18:46:25.857Z,10.77
2022-10-17T18:48:53.052Z,17.50
2022-10-17T18:51:23.535Z,13.70
2022-10-17T18:53:54.226Z,8.18
2022-10-17T18:56:22.871Z,9.25
2022-10-17T18:58:49.413Z,8.82
2022-10-17T19:01:22.690Z,7.35
2022-10-17T19:03:56.044Z,6.90
2022-10-17T19:06:32.602Z,31.77
2022-10-17T19:09:03.756Z,25.52
2022-10-17T19:11:32.885Z,11.20
2022-10-17T19:14:03.622Z,9.02
2022-10-17T19:16:36.630Z,14.07
2022-10-17T19:19:07.418Z,20.50
2022-10-17T19:21:34.679Z,49.95
2022-10-17T19:24:05.602Z,63.25
2022-10-17T19:26:35.400Z,21.40
2022-10-17T19:29:03.554Z,16.50
2022-10-17T19:31:32.167Z,12.85
2022-10-17T19:34:00.179Z,7.68
2022-10-17T19:36:33.228Z,12.68
2022-10-17T19:39:03.693Z,9.63
2022-10-17T19:41:30.774Z,6.80
2022-10-17T19:43:59.395Z,6.88
2022-10-17T19:46:28.577Z,6.28
2022-10-17T19:48:55.900Z,10.15
2022-10-17T19:51:24.453Z,13.65
2022-10-17T19:53:52.677Z,17.85
2022-10-17T19:56:24.284Z,12.82
2022-10-17T19:58:51.824Z,10.02
2022-10-17T20:01:22.658Z,7.03
2022-10-17T20:03:49.282Z,6.53
2022-10-17T20:06:17.579Z,8.90
2022-10-17T20:08:44.668Z,7.13
2022-10-17T20:11:19.906Z,7.20
2022-10-17T20:13:47.188Z,6.55
2022-10-17T20:16:21.290Z,10.65
2022-10-17T20:18:50.086Z,12.27
2022-10-17T20:21:23.863Z,7.75
2022-10-17T20:23:50.851Z,7.65
2022-10-17T20:29:14.606Z,8.38
2022-10-17T20:31:43.579Z,11.10
2022-10-17T20:34:13.967Z,35.00
2022-10-17T20:36:41.601Z,29.45
2022-10-17T20:39:10.772Z,16.60
2022-10-17T20:41:37.216Z,11.57
2022-10-17T20:44:04.540Z,9.88
2022-10-17T20:46:44.648Z,19.20
2022-10-17T20:49:18.439Z,18.75
2022-10-17T20:51:46.098Z,12.05
2022-10-17T20:54:12.811Z,8.93
2022-10-17T20:56:39.768Z,14.02
2022-10-17T20:59:12.725Z,10.15
2022-10-17T21:01:39.871Z,11.45
2022-10-17T21:04:33.385Z,7.70
2022-10-17T21:06:53.391Z,7.03
2022-10-17T21:09:20.951Z,6.95
2022-10-17T21:11:48.347Z,11.68
2022-10-17T21:14:16.590Z,9.57
2022-10-17T21:16:43.537Z,8.80
2022-10-17T21:19:11.815Z,9.13
2022-10-17T21:21:42.027Z,14.50
2022-10-17T21:24:13.963Z,11.60
2022-10-17T21:26:42.936Z,8.75
2022-10-17T21:29:10.988Z,8.90
2022-10-17T21:31:40.414Z,8.13
2022-10-17T21:34:10.487Z,7.65
2022-10-17T21:36:38.456Z,8.25
2022-10-17T21:39:05.775Z,7.95
2022-10-17T21:41:33.080Z,15.93
2022-10-17T21:44:06.791Z,25.27
2022-10-17T21:46:34.055Z,52.58
2022-10-17T21:49:01.169Z,48.50
2022-10-17T21:51:27.997Z,39.30
2022-10-17T21:53:57.299Z,40.10
2022-10-17T21:56:28.515Z,24.20
2022-10-17T21:58:55.483Z,29.38
2022-10-17T22:01:29.062Z,18.95
2022-10-17T22:03:59.578Z,13.73
2022-10-17T22:06:45.027Z,22.27
2022-10-17T22:09:24.462Z,16.63
2022-10-17T22:11:55.042Z,13.30
2022-10-17T22:14:26.559Z,12.80
2022-10-17T22:16:54.218Z,11.27
2022-10-17T22:19:26.306Z,11.02
2022-10-17T22:21:54.227Z,9.90
2022-10-17T22:26:53.493Z,9.98
2022-10-17T22:29:20.665Z,8.82
2022-10-17T22:31:47.184Z,10.23
2022-10-17T22:34:16.851Z,10.60
2022-10-17T22:36:44.177Z,8.93
2022-10-17T22:39:11.306Z,9.70
2022-10-17T22:41:37.843Z,8.73
2022-10-17T22:44:05.110Z,7.78
2022-10-17T22:46:31.572Z,8.32
2022-10-17T22:48:58.078Z,9.30
2022-10-17T22:51:24.936Z,8.95
2022-10-17T22:53:51.448Z,8.35
2022-10-17T22:56:20.807Z,8.40
2022-10-17T22:58:47.765Z,9.18
2022-10-17T23:01:18.985Z,9.18
2022-10-17T23:03:45.862Z,8.38
2022-10-17T23:06:13.436Z,8.88
2022-10-17T23:08:40.936Z,10.80
2022-10-17T23:11:08.538Z,11.68
2022-10-17T23:13:36.130Z,9.73
2022-10-17T23:16:03.675Z,10.90
2022-10-17T23:20:57.623Z,8.23
2022-10-17T23:23:24.179Z,9.93
2022-10-17T23:25:51.419Z,10.25
2022-10-17T23:28:18.547Z,10.48
2022-10-17T23:30:45.346Z,11.40
2022-10-17T23:33:13.770Z,12.23
2022-10-17T23:35:41.165Z,10.90
2022-10-17T23:38:08.171Z,12.90
2022-10-17T23:40:35.289Z,11.93
2022-10-17T23:43:02.672Z,11.75
2022-10-17T23:45:31.315Z,7.45
2022-10-17T23:48:01.153Z,6.55
2022-10-17T23:50:27.616Z,7.07
2022-10-17T23:52:54.076Z,6.80
2022-10-17T23:55:20.589Z,7.25
2022-10-17T23:57:47.023Z,7.03
